createdAt,value
2022-10-15T00:00:45.926Z,92212.47
2022-10-15T00:03:27.277Z,92209.78
2022-10-15T00:06:09.772Z,92209.66
2022-10-15T00:08:51.697Z,92206.66
2022-10-15T00:11:33.116Z,92212.56
2022-10-15T00:14:14.632Z,92204.66
2022-10-15T00:16:55.939Z,92208.31
2022-10-15T00:19:37.346Z,92201.91
2022-10-15T00:22:18.794Z,92202.28
2022-10-15T00:25:00.446Z,92198.44
2022-10-15T00:27:49.234Z,92197.66
2022-10-15T00:30:31.042Z,92189.91
2022-10-15T00:33:12.466Z,92192.09
2022-10-15T00:35:44.734Z,92197.09
2022-10-15T00:38:16.697Z,92196.81
2022-10-15T00:40:48.695Z,92192.16
2022-10-15T00:43:34.938Z,92180.69
2022-10-15T00:46:13.442Z,92178.19
2022-10-15T00:48:48.244Z,92181.47
2022-10-15T00:51:21.291Z,92176.75
2022-10-15T00:53:53.310Z,92174.94
2022-10-15T00:56:26.861Z,92168.19
2022-10-15T00:59:00.016Z,92168.19
2022-10-15T01:01:32.072Z,92168.94
2022-10-15T01:04:05.815Z,92165.31
2022-10-15T01:06:38.159Z,92172.88
2022-10-15T01:09:10.642Z,92169.59
2022-10-15T01:11:46.333Z,92172.19
2022-10-15T01:14:28.082Z,92164.13
2022-10-15T01:17:04.151Z,92164.75
2022-10-15T01:19:50.969Z,92163.69
2022-10-15T01:22:30.406Z,92161.88
2022-10-15T01:25:08.466Z,92167.47
2022-10-15T01:27:42.540Z,92178.31
2022-10-15T01:30:20.229Z,92169.59
2022-10-15T01:33:10.515Z,92170.88
2022-10-15T01:35:47.037Z,92167.75
2022-10-15T01:38:23.611Z,92172.13
2022-10-15T01:40:58.506Z,92168.19
2022-10-15T01:43:35.237Z,92165.63
2022-10-15T01:46:29.091Z,92172.66
2022-10-15T01:49:26.416Z,92170.63
2022-10-15T01:52:00.735Z,92170.00
2022-10-15T01:54:35.221Z,92177.00
2022-10-15T01:57:07.712Z,92173.16
2022-10-15T01:59:40.818Z,92179.13
2022-10-15T02:02:13.746Z,92172.59
2022-10-15T02:04:45.918Z,92173.84
2022-10-15T02:07:27.203Z,92174.59
2022-10-15T02:10:06.973Z,92175.41
2022-10-15T02:12:44.387Z,92179.75
2022-10-15T02:15:17.727Z,92175.59
2022-10-15T02:17:57.545Z,92176.25
2022-10-15T02:20:35.342Z,92175.66
2022-10-15T02:23:09.955Z,92181.34
2022-10-15T02:25:42.782Z,92183.34
2022-10-15T02:28:15.586Z,92183.19
2022-10-15T02:30:52.048Z,92178.00
2022-10-15T02:33:26.017Z,92180.31
2022-10-15T02:35:58.681Z,92182.34
2022-10-15T02:38:32.578Z,92184.53
2022-10-15T02:41:05.014Z,92184.06
2022-10-15T02:43:37.673Z,92181.41
2022-10-15T02:46:12.094Z,92175.06
2022-10-15T02:48:44.830Z,92176.34
2022-10-15T02:51:16.840Z,92184.69
2022-10-15T02:53:48.816Z,92179.56
2022-10-15T02:56:20.889Z,92172.69
2022-10-15T02:58:52.946Z,92176.75
2022-10-15T03:01:25.697Z,92180.13
2022-10-15T03:03:59.092Z,92174.16
2022-10-15T03:06:31.207Z,92171.19
2022-10-15T03:09:04.066Z,92171.97
2022-10-15T03:11:37.776Z,92165.47
2022-10-15T03:14:11.850Z,92168.38
2022-10-15T03:16:43.896Z,92169.66
2022-10-15T03:19:17.395Z,92176.97
2022-10-15T03:21:51.421Z,92175.41
2022-10-15T03:24:24.221Z,92177.59
2022-10-15T03:26:57.423Z,92185.22
2022-10-15T03:29:29.407Z,92184.28
2022-10-15T03:32:07.051Z,92189.22
2022-10-15T03:34:39.720Z,92181.69
2022-10-15T03:37:12.672Z,92184.06
2022-10-15T03:39:45.043Z,92183.81
2022-10-15T03:42:17.550Z,92180.41
2022-10-15T03:44:52.979Z,92178.09
2022-10-15T03:47:25.642Z,92171.63
2022-10-15T03:49:58.833Z,92178.03
2022-10-15T03:52:30.861Z,92181.34
2022-10-15T03:55:04.913Z,92184.06
2022-10-15T03:57:37.193Z,92182.53
2022-10-15T04:00:12.100Z,92186.19
2022-10-15T04:02:46.963Z,92185.84
2022-10-15T04:05:30.227Z,92184.78
2022-10-15T04:08:07.802Z,92187.19
2022-10-15T04:10:44.119Z,92194.63
2022-10-15T04:13:16.480Z,92190.25
2022-10-15T04:15:48.742Z,92195.19
2022-10-15T04:18:21.522Z,92190.69
2022-10-15T04:20:59.165Z,92196.72
2022-10-15T04:23:31.158Z,92199.81
2022-10-15T04:26:21.482Z,92194.81
2022-10-15T04:28:53.674Z,92197.66
2022-10-15T04:31:27.978Z,92201.22
2022-10-15T04:34:00.028Z,92197.78
2022-10-15T04:36:33.699Z,92198.75
2022-10-15T04:39:13.816Z,92196.47
2022-10-15T04:41:48.563Z,92198.00
2022-10-15T04:44:26.811Z,92205.88
2022-10-15T04:47:01.942Z,92202.88
2022-10-15T04:49:54.187Z,92207.56
2022-10-15T04:52:59.649Z,92213.53
2022-10-15T04:55:33.335Z,92212.22
2022-10-15T04:58:06.784Z,92219.56
2022-10-15T05:00:39.035Z,92218.53
2022-10-15T05:03:40.996Z,92220.78
2022-10-15T05:06:17.456Z,92225.63
2022-10-15T05:08:50.793Z,92219.59
2022-10-15T05:11:29.227Z,92226.06
2022-10-15T05:14:03.144Z,92231.97
2022-10-15T05:16:37.172Z,92232.13
2022-10-15T05:19:10.735Z,92233.38
2022-10-15T05:21:43.977Z,92233.94
2022-10-15T05:24:27.564Z,92241.81
2022-10-15T05:27:04.996Z,92231.13
2022-10-15T05:29:39.158Z,92244.34
2022-10-15T05:32:11.279Z,92248.00
2022-10-15T05:34:45.115Z,92252.44
2022-10-15T05:37:20.688Z,92257.84
2022-10-15T05:39:54.574Z,92259.34
2022-10-15T05:42:26.678Z,92257.75
2022-10-15T05:45:02.933Z,92265.31
2022-10-15T05:47:35.018Z,92255.88
2022-10-15T05:50:25.058Z,92263.06
2022-10-15T05:53:00.442Z,92261.09
2022-10-15T05:55:53.193Z,92260.25
2022-10-15T05:58:25.269Z,92258.31
2022-10-15T06:00:58.075Z,92264.91
2022-10-15T06:03:30.282Z,92262.56
2022-10-15T06:06:02.307Z,92258.91
2022-10-15T06:08:36.646Z,92261.91
2022-10-15T06:11:09.710Z,92273.13
2022-10-15T06:13:42.723Z,92269.47
2022-10-15T06:16:19.305Z,92274.66
2022-10-15T06:18:54.751Z,92277.00
2022-10-15T06:21:26.743Z,92273.31
2022-10-15T06:23:58.732Z,92275.16
2022-10-15T06:26:31.368Z,92275.00
2022-10-15T06:29:03.489Z,92280.28
2022-10-15T06:31:35.492Z,92281.47
2022-10-15T06:34:07.490Z,92281.13
2022-10-15T06:36:39.518Z,92284.09
2022-10-15T06:39:11.649Z,92287.75
2022-10-15T06:41:45.185Z,92289.44
2022-10-15T06:44:17.275Z,92289.72
2022-10-15T06:46:49.267Z,92288.19
2022-10-15T06:49:21.251Z,92286.56
2022-10-15T06:51:53.243Z,92284.47
2022-10-15T06:54:25.263Z,92287.28
2022-10-15T06:56:57.895Z,92285.88
2022-10-15T06:59:29.854Z,92286.81
2022-10-15T07:02:03.100Z,92290.22
2022-10-15T07:04:35.112Z,92289.28
2022-10-15T07:07:07.091Z,92295.31
2022-10-15T07:09:39.109Z,92296.31
2022-10-15T07:12:11.884Z,92301.91
2022-10-15T07:14:43.855Z,92306.38
2022-10-15T07:17:16.149Z,92305.78
2022-10-15T07:19:48.114Z,92303.03
2022-10-15T07:22:20.059Z,92296.88
2022-10-15T07:24:52.039Z,92298.25
2022-10-15T07:27:24.750Z,92299.69
2022-10-15T07:29:57.199Z,92301.16
2022-10-15T07:32:29.173Z,92304.66
2022-10-15T07:35:01.376Z,92305.53
2022-10-15T07:37:34.484Z,92307.66
2022-10-15T07:40:06.893Z,92309.13
2022-10-15T07:42:41.342Z,92305.56
2022-10-15T07:45:13.524Z,92314.75
2022-10-15T07:47:45.489Z,92311.75
2022-10-15T07:50:21.066Z,92306.03
2022-10-15T07:52:53.062Z,92313.41
2022-10-15T07:55:25.109Z,92316.38
2022-10-15T07:57:57.859Z,92320.44
2022-10-15T08:00:29.893Z,92317.53
2022-10-15T08:03:01.928Z,92331.47
2022-10-15T08:05:34.089Z,92330.19
2022-10-15T08:08:06.085Z,92323.44
2022-10-15T08:10:38.099Z,92331.84
2022-10-15T08:13:10.734Z,92324.25
2022-10-15T08:15:42.837Z,92325.53
2022-10-15T08:18:15.070Z,92321.59
2022-10-15T08:20:47.077Z,92319.50
2022-10-15T08:23:19.047Z,92319.75
2022-10-15T08:25:51.068Z,92311.69
2022-10-15T08:28:23.768Z,92315.09
2022-10-15T08:30:57.711Z,92311.03
2022-10-15T08:33:31.303Z,92311.72
2022-10-15T08:36:04.261Z,92309.88
2022-10-15T08:38:36.274Z,92300.84
2022-10-15T08:41:18.554Z,92302.56
2022-10-15T08:43:51.694Z,92307.00
2022-10-15T08:46:28.646Z,92314.00
2022-10-15T08:49:01.430Z,92309.25
2022-10-15T08:51:40.066Z,92309.88
2022-10-15T08:54:15.449Z,92306.06
2022-10-15T08:56:49.711Z,92311.16
2022-10-15T08:59:31.371Z,92310.72
2022-10-15T09:02:08.380Z,92311.06
2022-10-15T09:04:45.792Z,92312.28
2022-10-15T09:07:19.174Z,92317.53
2022-10-15T09:09:52.737Z,92307.50
2022-10-15T09:12:35.078Z,92313.69
2022-10-15T09:15:10.037Z,92310.56
2022-10-15T09:17:43.741Z,92304.28
2022-10-15T09:20:20.610Z,92302.88
2022-10-15T09:22:59.137Z,92304.88
2022-10-15T09:25:34.435Z,92306.41
2022-10-15T09:28:09.008Z,92310.75
2022-10-15T09:30:43.752Z,92309.34
2022-10-15T09:33:18.651Z,92304.41
2022-10-15T09:35:52.658Z,92301.63
2022-10-15T09:38:27.535Z,92303.94
2022-10-15T09:41:05.461Z,92302.16
2022-10-15T09:43:40.136Z,92299.75
2022-10-15T09:46:12.934Z,92307.56
2022-10-15T09:48:48.008Z,92311.88
2022-10-15T09:51:24.358Z,92313.47
2022-10-15T09:54:01.102Z,92314.94
2022-10-15T09:56:34.994Z,92305.44
2022-10-15T09:59:09.568Z,92304.84
2022-10-15T10:01:55.910Z,92301.41
2022-10-15T10:04:28.771Z,92300.91
2022-10-15T10:07:03.354Z,92306.88
2022-10-15T10:09:37.929Z,92318.09
2022-10-15T10:12:18.423Z,92315.78
2022-10-15T10:14:54.333Z,92313.81
2022-10-15T10:17:27.368Z,92314.38
2022-10-15T10:20:09.843Z,92310.38
2022-10-15T10:22:45.613Z,92309.47
2022-10-15T10:25:27.268Z,92313.94
2022-10-15T10:28:03.507Z,92308.47
2022-10-15T10:30:36.957Z,92306.00
2022-10-15T10:33:12.824Z,92300.47
2022-10-15T10:35:45.843Z,92303.28
2022-10-15T10:38:19.647Z,92306.72
2022-10-15T10:40:53.284Z,92313.00
2022-10-15T10:43:26.209Z,92317.81
2022-10-15T10:45:59.079Z,92295.91
2022-10-15T10:48:38.509Z,92307.19
2022-10-15T10:51:13.066Z,92305.81
2022-10-15T10:53:50.615Z,92299.75
2022-10-15T10:56:23.854Z,92302.09
2022-10-15T10:58:58.206Z,92304.88
2022-10-15T11:01:30.283Z,92297.63
2022-10-15T11:04:03.308Z,92300.41
2022-10-15T11:06:52.178Z,92295.91
2022-10-15T11:09:37.409Z,92292.22
2022-10-15T11:12:18.314Z,92288.50
2022-10-15T11:14:53.123Z,92298.22
2022-10-15T11:17:35.783Z,92297.59
2022-10-15T11:20:32.131Z,92296.66
2022-10-15T11:23:14.194Z,92300.94
2022-10-15T11:25:49.366Z,92299.69
2022-10-15T11:28:27.365Z,92306.16
2022-10-15T11:31:04.147Z,92306.25
2022-10-15T11:33:45.271Z,92299.34
2022-10-15T11:36:25.184Z,92297.50
2022-10-15T11:39:06.476Z,92301.38
2022-10-15T11:41:44.635Z,92303.06
2022-10-15T11:44:32.318Z,92295.06
2022-10-15T11:47:12.555Z,92296.84
2022-10-15T11:49:53.377Z,92291.31
2022-10-15T11:52:37.035Z,92296.63
2022-10-15T11:55:11.934Z,92291.34
2022-10-15T11:57:45.598Z,92293.63
2022-10-15T12:00:23.243Z,92293.63
2022-10-15T12:02:56.634Z,92308.50
2022-10-15T12:05:31.446Z,92304.34
2022-10-15T12:10:55.842Z,92299.53
2022-10-15T12:13:29.686Z,92304.94
2022-10-15T12:16:08.860Z,92302.81
2022-10-15T12:18:44.421Z,92300.69
2022-10-15T12:21:36.341Z,92303.81
2022-10-15T12:24:23.130Z,92292.03
2022-10-15T12:26:56.090Z,92298.59
2022-10-15T12:29:28.118Z,92299.44
2022-10-15T12:32:00.139Z,92298.16
2022-10-15T12:34:36.576Z,92293.00
2022-10-15T12:37:16.333Z,92285.34
2022-10-15T12:39:53.980Z,92291.66
2022-10-15T12:42:31.669Z,92290.03
2022-10-15T12:45:05.884Z,92292.75
2022-10-15T12:47:47.666Z,92288.81
2022-10-15T12:50:20.299Z,92283.38
2022-10-15T12:52:54.340Z,92285.47
2022-10-15T12:55:28.184Z,92285.47
2022-10-15T12:58:14.990Z,92281.63
2022-10-15T13:00:47.773Z,92284.25
2022-10-15T13:03:25.514Z,92287.25
2022-10-15T13:06:12.509Z,92284.06
2022-10-15T13:08:45.214Z,92289.56
2022-10-15T13:11:19.662Z,92285.34
2022-10-15T13:13:55.135Z,92281.81
2022-10-15T13:16:28.316Z,92269.00
2022-10-15T13:19:00.406Z,92277.34
2022-10-15T13:21:49.763Z,92265.09
2022-10-15T13:24:23.977Z,92261.56
2022-10-15T13:26:56.917Z,92277.78
2022-10-15T13:29:28.922Z,92269.88
2022-10-15T13:32:01.645Z,92281.56
2022-10-15T13:34:35.983Z,92272.56
2022-10-15T13:37:16.663Z,92269.06
2022-10-15T13:39:49.975Z,92272.63
2022-10-15T13:42:22.870Z,92271.09
2022-10-15T13:44:56.190Z,92270.28
2022-10-15T13:47:31.253Z,92259.06
2022-10-15T13:50:27.158Z,92261.56
2022-10-15T13:53:01.182Z,92254.09
2022-10-15T13:55:35.626Z,92261.47
2022-10-15T13:58:17.074Z,92272.97
2022-10-15T14:00:50.524Z,92266.38
2022-10-15T14:03:23.470Z,92273.44
2022-10-15T14:05:56.065Z,92263.88
2022-10-15T14:08:29.062Z,92258.53
2022-10-15T14:11:01.155Z,92264.66
2022-10-15T14:13:33.190Z,92260.50
2022-10-15T14:16:13.341Z,92256.22
2022-10-15T14:18:49.163Z,92254.66
2022-10-15T14:21:28.051Z,92252.59
2022-10-15T14:24:04.739Z,92250.97
2022-10-15T14:26:38.468Z,92251.28
2022-10-15T14:29:16.382Z,92254.44
2022-10-15T14:31:48.554Z,92243.16
2022-10-15T14:34:29.568Z,92252.59
2022-10-15T14:37:02.030Z,92251.38
2022-10-15T14:39:35.035Z,92255.69
2022-10-15T14:42:25.538Z,92247.34
2022-10-15T14:45:09.814Z,92252.59
2022-10-15T14:47:44.754Z,92256.44
2022-10-15T14:50:17.974Z,92255.19
2022-10-15T14:52:51.220Z,92258.13
2022-10-15T14:55:32.472Z,92267.81
2022-10-15T14:58:07.890Z,92261.66
2022-10-15T15:00:41.659Z,92273.22
2022-10-15T15:03:14.924Z,92274.41
2022-10-15T15:05:49.151Z,92275.50
2022-10-15T15:08:21.675Z,92276.09
2022-10-15T15:10:55.185Z,92287.63
2022-10-15T15:13:28.372Z,92280.66
2022-10-15T15:16:02.053Z,92285.84
2022-10-15T15:18:34.030Z,92299.53
2022-10-15T15:21:07.604Z,92295.38
2022-10-15T15:23:40.278Z,92301.84
2022-10-15T15:26:12.314Z,92296.31
2022-10-15T15:28:44.348Z,92301.69
2022-10-15T15:31:17.393Z,92298.28
2022-10-15T15:33:49.398Z,92306.25
2022-10-15T15:36:23.923Z,92299.78
2022-10-15T15:38:58.074Z,92307.97
2022-10-15T15:41:30.301Z,92307.47
2022-10-15T15:44:03.957Z,92315.88
2022-10-15T15:46:35.943Z,92329.13
2022-10-15T15:49:07.933Z,92325.81
2022-10-15T15:51:40.697Z,92340.72
2022-10-15T15:54:12.682Z,92342.72
2022-10-15T15:56:44.818Z,92344.66
2022-10-15T15:59:18.635Z,92350.25
2022-10-15T16:01:50.733Z,92350.38
2022-10-15T16:04:22.805Z,92356.25
2022-10-15T16:06:55.478Z,92363.25
2022-10-15T16:09:27.495Z,92370.56
2022-10-15T16:12:01.111Z,92366.41
2022-10-15T16:14:33.118Z,92371.97
2022-10-15T16:17:05.094Z,92380.50
2022-10-15T16:19:37.147Z,92380.78
2022-10-15T16:22:10.288Z,92378.38
2022-10-15T16:24:42.266Z,92386.66
2022-10-15T16:27:14.216Z,92376.13
2022-10-15T16:29:46.231Z,92377.84
2022-10-15T16:32:18.224Z,92389.66
2022-10-15T16:34:50.503Z,92384.72
2022-10-15T16:37:23.494Z,92393.16
2022-10-15T16:39:55.719Z,92396.94
2022-10-15T16:42:27.695Z,92399.16
2022-10-15T16:44:59.700Z,92398.47
2022-10-15T16:47:31.707Z,92403.47
2022-10-15T16:50:04.113Z,92405.63
2022-10-15T16:52:36.812Z,92412.06
2022-10-15T16:55:09.215Z,92407.03
2022-10-15T16:57:41.262Z,92421.34
2022-10-15T17:00:13.600Z,92421.41
2022-10-15T17:02:45.610Z,92423.56
2022-10-15T17:05:17.653Z,92423.63
2022-10-15T17:07:50.315Z,92433.63
2022-10-15T17:10:24.945Z,92429.75
2022-10-15T17:12:56.893Z,92436.03
2022-10-15T17:15:28.894Z,92431.38
2022-10-15T17:18:00.894Z,92427.88
2022-10-15T17:20:34.102Z,92433.31
2022-10-15T17:23:06.750Z,92436.47
2022-10-15T17:25:38.933Z,92435.78
2022-10-15T17:28:14.578Z,92441.56
2022-10-15T17:30:46.884Z,92432.66
2022-10-15T17:33:18.924Z,92432.25
2022-10-15T17:35:50.984Z,92428.66
2022-10-15T17:38:23.950Z,92431.66
2022-10-15T17:40:56.077Z,92427.13
2022-10-15T17:43:28.037Z,92428.66
2022-10-15T17:46:00.278Z,92433.41
2022-10-15T17:48:32.354Z,92433.88
2022-10-15T17:51:05.001Z,92433.69
2022-10-15T17:53:37.755Z,92430.59
2022-10-15T17:56:11.450Z,92431.94
2022-10-15T17:58:43.918Z,92443.28
2022-10-15T18:01:27.912Z,92435.72
2022-10-15T18:04:09.210Z,92433.91
2022-10-15T18:06:43.067Z,92435.31
2022-10-15T18:09:18.313Z,92442.63
2022-10-15T18:11:50.570Z,92427.97
2022-10-15T18:14:22.579Z,92445.50
2022-10-15T18:16:54.674Z,92448.38
2022-10-15T18:19:27.450Z,92447.75
2022-10-15T18:21:59.505Z,92458.84
2022-10-15T18:24:32.414Z,92459.97
2022-10-15T18:27:09.658Z,92458.63
2022-10-15T18:29:43.496Z,92458.69
2022-10-15T18:32:15.701Z,92464.75
2022-10-15T18:34:47.768Z,92461.03
2022-10-15T18:37:19.763Z,92455.50
2022-10-15T18:39:52.429Z,92452.59
2022-10-15T18:42:24.861Z,92455.75
2022-10-15T18:44:57.081Z,92459.53
2022-10-15T18:47:29.160Z,92448.81
2022-10-15T18:50:01.175Z,92457.19
2022-10-15T18:52:39.890Z,92447.25
2022-10-15T18:55:13.317Z,92456.78
2022-10-15T18:57:47.196Z,92460.38
2022-10-15T19:00:19.354Z,92466.59
2022-10-15T19:02:51.346Z,92468.34
2022-10-15T19:05:23.315Z,92474.53
2022-10-15T19:07:55.297Z,92477.34
2022-10-15T19:10:27.956Z,92481.78
2022-10-15T19:13:00.074Z,92481.03
2022-10-15T19:15:35.729Z,92487.00
2022-10-15T19:18:10.412Z,92488.53
2022-10-15T19:20:42.399Z,92491.16
2022-10-15T19:23:14.682Z,92489.81
2022-10-15T19:25:47.438Z,92494.81
2022-10-15T19:28:19.509Z,92499.53
2022-10-15T19:30:54.876Z,92502.22
2022-10-15T19:33:28.000Z,92495.03
2022-10-15T19:36:00.033Z,92489.59
2022-10-15T19:38:32.039Z,92492.97
2022-10-15T19:41:04.802Z,92492.91
2022-10-15T19:43:36.827Z,92497.13
2022-10-15T19:46:08.899Z,92506.31
2022-10-15T19:48:43.559Z,92502.41
2022-10-15T19:51:15.545Z,92510.00
2022-10-15T19:53:50.254Z,92510.94
2022-10-15T19:56:22.926Z,92509.19
2022-10-15T19:58:55.492Z,92510.28
2022-10-15T20:01:28.198Z,92508.06
2022-10-15T20:04:05.055Z,92504.19
2022-10-15T20:06:38.616Z,92508.63
2022-10-15T20:09:10.659Z,92510.50
2022-10-15T20:11:44.295Z,92508.00
2022-10-15T20:14:16.280Z,92508.06
2022-10-15T20:16:48.298Z,92497.16
2022-10-15T20:19:20.820Z,92498.03
2022-10-15T20:21:52.793Z,92503.28
2022-10-15T20:24:24.837Z,92510.88
2022-10-15T20:26:57.534Z,92506.88
2022-10-15T20:29:29.501Z,92505.59
2022-10-15T20:32:10.693Z,92499.63
2022-10-15T20:34:43.231Z,92502.56
2022-10-15T20:37:16.919Z,92504.88
2022-10-15T20:39:48.965Z,92505.47
2022-10-15T20:42:21.743Z,92505.00
2022-10-15T20:44:53.751Z,92503.25
2022-10-15T20:47:25.765Z,92507.09
2022-10-15T20:49:57.862Z,92513.34
2022-10-15T20:52:30.364Z,92514.16
2022-10-15T20:55:02.682Z,92508.72
2022-10-15T20:57:35.865Z,92517.88
2022-10-15T21:00:08.823Z,92518.69
2022-10-15T21:02:41.310Z,92524.41
2022-10-15T21:05:13.301Z,92520.81
2022-10-15T21:07:45.271Z,92526.78
2022-10-15T21:10:17.424Z,92526.53
2022-10-15T21:12:50.047Z,92528.91
2022-10-15T21:15:22.052Z,92524.25
2022-10-15T21:17:54.006Z,92532.34
2022-10-15T21:20:26.126Z,92538.31
2022-10-15T21:22:58.106Z,92540.41
2022-10-15T21:25:30.267Z,92540.16
2022-10-15T21:28:02.971Z,92553.69
2022-10-15T21:30:38.733Z,92555.00
2022-10-15T21:33:10.706Z,92561.00
2022-10-15T21:35:42.759Z,92560.69
2022-10-15T21:38:14.723Z,92558.16
2022-10-15T21:40:48.645Z,92569.28
2022-10-15T21:43:21.308Z,92570.34
2022-10-15T21:45:53.381Z,92571.38
2022-10-15T21:48:26.782Z,92563.09
2022-10-15T21:50:58.834Z,92569.84
2022-10-15T21:53:30.863Z,92579.44
2022-10-15T21:56:04.855Z,92583.34
2022-10-15T21:58:38.112Z,92581.50
2022-10-15T22:01:14.554Z,92575.31
2022-10-15T22:03:49.525Z,92583.34
2022-10-15T22:06:21.586Z,92588.03
2022-10-15T22:08:53.847Z,92577.91
2022-10-15T22:14:04.942Z,92581.78
2022-10-15T22:16:37.910Z,92577.91
2022-10-15T22:19:12.699Z,92588.28
2022-10-15T22:21:44.928Z,92587.75
2022-10-15T22:24:18.325Z,92587.25
2022-10-15T22:26:51.226Z,92587.75
2022-10-15T22:29:24.677Z,92587.22
2022-10-15T22:31:56.682Z,92593.97
2022-10-15T22:34:28.690Z,92590.06
2022-10-15T22:37:00.670Z,92587.50
2022-10-15T22:39:32.640Z,92591.38
2022-10-15T22:42:05.611Z,92585.66
2022-10-15T22:44:38.359Z,92581.00
2022-10-15T22:47:10.629Z,92582.81
2022-10-15T22:49:42.574Z,92584.88
2022-10-15T22:52:14.554Z,92587.22
2022-10-15T22:54:46.535Z,92588.78
2022-10-15T22:57:19.665Z,92595.25
2022-10-15T22:59:55.866Z,92596.53
2022-10-15T23:02:30.636Z,92596.78
2022-10-15T23:05:02.709Z,92600.94
2022-10-15T23:07:34.675Z,92594.72
2022-10-15T23:10:06.887Z,92598.59
2022-10-15T23:12:39.008Z,92602.97
2022-10-15T23:15:11.651Z,92607.09
2022-10-15T23:17:43.632Z,92603.22
2022-10-15T23:20:15.598Z,92607.88
2022-10-15T23:22:47.579Z,92612.53
2022-10-15T23:25:19.534Z,92615.13
2022-10-15T23:27:51.501Z,92619.78
2022-10-15T23:30:24.972Z,92607.06
2022-10-15T23:32:57.353Z,92603.19
2022-10-15T23:35:29.356Z,92603.19
2022-10-15T23:38:01.375Z,92612.00
2022-10-15T23:40:33.376Z,92598.50
2022-10-15T23:43:05.362Z,92594.84
2022-10-15T23:45:40.815Z,92596.63
2022-10-15T23:48:13.672Z,92605.19
2022-10-15T23:50:45.646Z,92610.09
2022-10-15T23:53:18.017Z,92607.72
2022-10-15T23:55:50.002Z,92609.31
2022-10-15T23:58:21.953Z,92616.78
